createdAt,value
2023-02-24T00:02:01.439Z,6.40
2023-02-24T00:04:32.133Z,6.10
2023-02-24T00:07:01.174Z,6.00
2023-02-24T00:09:31.322Z,5.80
2023-02-24T00:12:02.916Z,5.60
2023-02-24T00:14:34.921Z,5.60
2023-02-24T00:17:03.920Z,5.60
2023-02-24T00:19:34.237Z,5.60
2023-02-24T00:22:03.589Z,5.50
2023-02-24T00:24:32.351Z,5.40
2023-02-24T00:27:07.558Z,5.50
2023-02-24T00:29:37.501Z,5.60
2023-02-24T00:32:08.483Z,5.60
2023-02-24T00:34:38.480Z,5.40
2023-02-24T00:37:08.879Z,5.40
2023-02-24T00:39:41.292Z,5.40
2023-02-24T00:42:12.418Z,5.40
2023-02-24T00:44:42.082Z,5.20
2023-02-24T00:47:12.033Z,5.20
2023-02-24T00:49:43.003Z,5.20
2023-02-24T00:52:13.763Z,5.20
2023-02-24T00:54:42.382Z,5.20
2023-02-24T00:57:13.186Z,5.00
2023-02-24T00:59:42.514Z,5.30
2023-02-24T01:02:13.265Z,5.40
2023-02-24T01:04:44.455Z,5.40
2023-02-24T01:07:13.987Z,5.40
2023-02-24T01:09:42.823Z,5.50
2023-02-24T01:12:33.350Z,5.30
2023-02-24T01:15:05.132Z,5.20
2023-02-24T01:17:33.357Z,5.10
2023-02-24T01:20:16.478Z,5.10
2023-02-24T01:22:46.160Z,5.10
2023-02-24T01:25:14.670Z,5.00
2023-02-24T01:27:44.240Z,5.00
2023-02-24T01:30:16.211Z,5.20
2023-02-24T01:32:46.630Z,5.20
2023-02-24T01:35:15.690Z,5.20
2023-02-24T01:37:45.802Z,5.40
2023-02-24T01:40:21.837Z,5.20
2023-02-24T01:42:55.307Z,5.20
2023-02-24T01:45:28.508Z,5.20
2023-02-24T01:48:01.423Z,5.30
2023-02-24T01:50:30.107Z,5.10
2023-02-24T01:53:03.745Z,5.00
2023-02-24T01:55:36.835Z,5.00
2023-02-24T01:58:11.859Z,5.00
2023-02-24T02:00:47.941Z,5.20
2023-02-24T02:03:27.083Z,5.30
2023-02-24T02:06:01.159Z,5.30
2023-02-24T02:08:31.444Z,5.40
2023-02-24T02:11:06.004Z,5.40
2023-02-24T02:13:38.113Z,5.30
2023-02-24T02:16:30.710Z,4.90
2023-02-24T02:19:10.739Z,4.80
2023-02-24T02:22:05.437Z,4.80
2023-02-24T02:24:44.941Z,4.80
2023-02-24T02:27:45.220Z,4.90
2023-02-24T02:30:52.551Z,4.90
2023-02-24T02:34:05.394Z,4.60
2023-02-24T02:36:43.092Z,4.60
2023-02-24T02:39:17.797Z,4.80
2023-02-24T02:41:54.780Z,4.80
2023-02-24T02:44:32.254Z,4.60
2023-02-24T02:47:09.013Z,4.80
2023-02-24T02:49:42.737Z,4.80
2023-02-24T02:52:18.360Z,4.60
2023-02-24T02:54:51.860Z,4.50
2023-02-24T02:57:23.630Z,4.50
2023-02-24T02:59:56.833Z,4.60
2023-02-24T03:02:29.562Z,4.60
2023-02-24T03:05:02.119Z,4.60
2023-02-24T03:07:37.632Z,4.60
2023-02-24T03:10:11.353Z,4.50
2023-02-24T03:12:42.194Z,4.50
2023-02-24T03:15:12.452Z,4.60
2023-02-24T03:17:45.415Z,4.50
2023-02-24T03:20:22.456Z,4.40
2023-02-24T03:22:59.506Z,4.20
2023-02-24T03:25:34.296Z,4.10
2023-02-24T03:28:09.128Z,4.00
2023-02-24T03:30:44.118Z,4.00
2023-02-24T03:33:20.528Z,3.80
2023-02-24T03:35:51.222Z,4.00
2023-02-24T03:38:24.407Z,3.90
2023-02-24T03:40:53.603Z,3.90
2023-02-24T03:43:26.398Z,3.90
2023-02-24T03:45:55.969Z,4.00
2023-02-24T03:48:26.283Z,4.20
2023-02-24T03:50:55.340Z,3.90
2023-02-24T03:53:36.253Z,3.80
2023-02-24T03:56:16.609Z,3.80
2023-02-24T03:58:56.341Z,3.80
2023-02-24T04:01:35.422Z,3.90
2023-02-24T04:04:08.545Z,4.00
2023-02-24T04:06:45.552Z,4.00
2023-02-24T04:09:24.723Z,3.90
2023-02-24T04:11:59.200Z,3.90
2023-02-24T04:14:33.430Z,3.90
2023-02-24T04:17:09.134Z,3.80
2023-02-24T04:19:41.124Z,3.70
2023-02-24T04:22:13.646Z,3.80
2023-02-24T04:24:45.614Z,3.80
2023-02-24T04:27:16.660Z,3.90
2023-02-24T04:29:54.200Z,3.90
2023-02-24T04:32:28.204Z,3.80
2023-02-24T04:35:04.247Z,3.90
2023-02-24T04:37:33.936Z,3.90
2023-02-24T04:40:09.004Z,4.00
2023-02-24T04:42:40.970Z,4.10
2023-02-24T04:45:12.965Z,4.00
2023-02-24T04:47:46.058Z,4.10
2023-02-24T04:50:22.898Z,3.80
2023-02-24T04:52:53.620Z,3.70
2023-02-24T04:55:25.273Z,3.70
2023-02-24T04:57:54.022Z,3.80
2023-02-24T05:00:22.974Z,3.70
2023-02-24T05:02:53.004Z,3.70
2023-02-24T05:05:25.517Z,3.70
2023-02-24T05:07:55.251Z,3.70
2023-02-24T05:10:27.902Z,3.70
2023-02-24T05:12:58.261Z,3.60
2023-02-24T05:15:31.344Z,3.70
2023-02-24T05:18:01.391Z,3.60
2023-02-24T05:20:47.069Z,3.50
2023-02-24T05:23:16.957Z,3.50
2023-02-24T05:25:46.801Z,3.60
2023-02-24T05:28:16.035Z,3.70
2023-02-24T05:30:44.271Z,3.70
2023-02-24T05:33:13.581Z,3.70
2023-02-24T05:35:42.484Z,3.70
2023-02-24T05:38:10.708Z,3.70
2023-02-24T05:40:45.882Z,3.60
2023-02-24T05:43:18.705Z,3.70
2023-02-24T05:45:47.419Z,3.60
2023-02-24T05:48:17.116Z,3.80
2023-02-24T05:50:55.031Z,3.70
2023-02-24T05:53:24.268Z,3.60
2023-02-24T05:55:52.689Z,3.70
2023-02-24T05:58:23.966Z,3.60
2023-02-24T06:00:52.436Z,3.80
2023-02-24T06:03:30.918Z,3.70
2023-02-24T06:06:05.605Z,3.60
2023-02-24T06:08:42.548Z,3.60
2023-02-24T06:11:12.046Z,3.50
2023-02-24T06:13:47.671Z,3.60
2023-02-24T06:16:17.307Z,3.60
2023-02-24T06:18:50.554Z,3.60
2023-02-24T06:21:19.706Z,3.60
2023-02-24T06:23:48.285Z,3.50
2023-02-24T06:26:19.697Z,3.50
2023-02-24T06:28:50.057Z,3.50
2023-02-24T06:31:18.794Z,3.40
2023-02-24T06:33:47.628Z,3.30
2023-02-24T06:36:16.652Z,3.40
2023-02-24T06:38:44.908Z,3.40
2023-02-24T06:41:13.878Z,3.40
2023-02-24T06:43:44.131Z,3.30
2023-02-24T06:46:16.432Z,3.20
2023-02-24T06:48:44.949Z,3.10
2023-02-24T06:51:15.611Z,3.10
2023-02-24T06:53:44.757Z,3.20
2023-02-24T06:56:16.004Z,3.10
2023-02-24T06:58:47.799Z,3.00
2023-02-24T07:01:19.700Z,3.00
2023-02-24T07:04:03.451Z,3.10
2023-02-24T07:06:37.430Z,3.20
2023-02-24T07:09:08.597Z,3.30
2023-02-24T07:11:39.121Z,3.10
2023-02-24T07:14:07.792Z,3.10
2023-02-24T07:16:39.358Z,3.30
2023-02-24T07:19:11.379Z,3.40
2023-02-24T07:21:43.402Z,3.30
2023-02-24T07:24:14.014Z,3.40
2023-02-24T07:26:43.774Z,3.20
2023-02-24T07:29:13.193Z,3.40
2023-02-24T07:31:43.306Z,3.40
2023-02-24T07:34:15.037Z,3.30
2023-02-24T07:36:50.346Z,3.30
2023-02-24T07:39:19.722Z,3.20
2023-02-24T07:41:49.494Z,3.00
2023-02-24T07:44:18.966Z,3.00
2023-02-24T07:46:50.013Z,2.90
2023-02-24T07:49:20.655Z,2.90
2023-02-24T07:51:52.805Z,2.80
2023-02-24T07:54:23.167Z,2.80
2023-02-24T07:56:57.698Z,2.80
2023-02-24T07:59:29.971Z,2.80
2023-02-24T08:02:01.922Z,2.90
2023-02-24T08:04:32.942Z,3.00
2023-02-24T08:07:03.299Z,3.00
2023-02-24T08:09:56.639Z,2.80
2023-02-24T08:12:28.188Z,2.90
2023-02-24T08:15:00.293Z,3.10
2023-02-24T08:17:30.373Z,3.10
2023-02-24T08:20:22.158Z,3.10
2023-02-24T08:22:53.283Z,3.10
2023-02-24T08:25:23.620Z,3.10
2023-02-24T08:28:07.809Z,3.10
2023-02-24T08:30:45.824Z,2.90
2023-02-24T08:33:22.310Z,2.90
2023-02-24T08:35:58.011Z,3.10
2023-02-24T08:38:28.456Z,3.20
2023-02-24T08:41:04.940Z,3.20
2023-02-24T08:43:42.174Z,3.10
2023-02-24T08:46:25.647Z,3.30
2023-02-24T08:48:57.993Z,3.30
2023-02-24T08:51:29.801Z,3.40
2023-02-24T08:54:00.085Z,3.50
2023-02-24T08:56:34.682Z,3.60
2023-02-24T08:59:06.454Z,3.40
2023-02-24T09:01:36.830Z,3.50
2023-02-24T09:04:09.205Z,3.40
2023-02-24T09:06:44.170Z,3.50
2023-02-24T09:09:21.123Z,3.50
2023-02-24T09:11:56.103Z,3.40
2023-02-24T09:14:28.562Z,3.40
2023-02-24T09:17:07.074Z,3.50
2023-02-24T09:20:02.431Z,3.50
2023-02-24T09:22:32.404Z,3.50
2023-02-24T09:25:23.934Z,3.50
2023-02-24T09:27:55.745Z,3.50
2023-02-24T09:30:36.904Z,3.50
2023-02-24T09:33:21.199Z,3.50
2023-02-24T09:36:09.944Z,3.50
2023-02-24T09:38:57.108Z,3.50
2023-02-24T09:41:33.035Z,3.50
2023-02-24T09:44:07.694Z,3.50
2023-02-24T09:46:42.397Z,3.50
2023-02-24T09:49:18.437Z,3.50
2023-02-24T09:52:00.671Z,3.40
2023-02-24T09:54:36.364Z,3.40
2023-02-24T09:57:16.836Z,3.50
2023-02-24T10:00:01.441Z,3.50
2023-02-24T10:02:44.418Z,3.30
2023-02-24T10:05:27.374Z,3.30
2023-02-24T10:08:00.551Z,3.20
2023-02-24T10:10:36.229Z,3.30
2023-02-24T10:13:14.891Z,3.30
2023-02-24T10:16:07.023Z,3.40
2023-02-24T10:18:44.432Z,3.40
2023-02-24T10:21:21.126Z,3.40
2023-02-24T10:24:05.579Z,3.40
2023-02-24T10:26:59.653Z,3.40
2023-02-24T10:29:50.872Z,3.50
2023-02-24T10:32:24.610Z,3.60
2023-02-24T10:34:54.237Z,3.60
2023-02-24T10:37:29.573Z,3.60
2023-02-24T10:40:09.514Z,3.60
2023-02-24T10:42:45.840Z,3.50
2023-02-24T10:45:21.085Z,3.50
2023-02-24T10:47:56.810Z,3.40
2023-02-24T10:50:31.974Z,3.40
2023-02-24T10:53:26.050Z,3.30
2023-02-24T10:56:15.388Z,3.10
2023-02-24T10:58:56.846Z,3.10
2023-02-24T11:01:43.802Z,3.10
2023-02-24T11:04:33.489Z,2.90
2023-02-24T11:07:10.345Z,2.70
2023-02-24T11:09:52.354Z,2.60
2023-02-24T11:12:42.195Z,2.60
2023-02-24T11:15:38.984Z,2.30
2023-02-24T11:18:10.562Z,2.30
2023-02-24T11:20:49.355Z,2.20
2023-02-24T11:23:21.250Z,2.10
2023-02-24T11:25:56.231Z,2.00
2023-02-24T11:28:47.655Z,2.00
2023-02-24T11:31:29.523Z,1.80
2023-02-24T11:34:06.184Z,1.70
2023-02-24T11:36:47.847Z,1.60
2023-02-24T11:39:52.120Z,1.50
2023-02-24T11:42:55.999Z,1.40
2023-02-24T11:45:34.120Z,1.40
2023-02-24T11:48:06.701Z,1.50
2023-02-24T11:50:43.988Z,1.40
2023-02-24T11:53:29.153Z,1.50
2023-02-24T11:56:03.018Z,1.40
2023-02-24T11:58:40.216Z,1.40
2023-02-24T12:01:16.053Z,1.40
2023-02-24T12:03:53.778Z,1.20
2023-02-24T12:06:28.674Z,1.20
2023-02-24T12:09:02.234Z,1.30
2023-02-24T12:11:41.648Z,1.40
2023-02-24T12:14:19.887Z,1.40
2023-02-24T12:16:57.500Z,1.40
2023-02-24T12:19:33.418Z,1.60
2023-02-24T12:22:07.758Z,1.50
2023-02-24T12:24:37.837Z,1.50
2023-02-24T12:27:18.466Z,1.50
2023-02-24T12:30:23.383Z,1.50
2023-02-24T12:33:08.791Z,1.50
2023-02-24T12:35:45.589Z,1.50
2023-02-24T12:38:41.244Z,1.50
2023-02-24T12:41:20.506Z,1.50
2023-02-24T12:43:54.973Z,1.40
2023-02-24T12:46:28.618Z,1.40
2023-02-24T12:49:23.260Z,1.40
2023-02-24T12:52:05.355Z,1.50
2023-02-24T12:54:39.053Z,1.60
2023-02-24T12:57:13.159Z,1.50
2023-02-24T12:59:42.900Z,1.40
2023-02-24T13:02:23.976Z,1.40
2023-02-24T13:05:24.647Z,1.30
2023-02-24T13:08:13.037Z,1.30
2023-02-24T13:10:48.349Z,1.30
2023-02-24T13:13:23.161Z,1.40
2023-02-24T13:15:54.553Z,1.30
2023-02-24T13:18:29.026Z,1.30
2023-02-24T13:21:19.851Z,1.30
2023-02-24T13:23:58.130Z,1.40
2023-02-24T13:26:27.815Z,1.20
2023-02-24T13:29:02.120Z,1.30
2023-02-24T13:31:42.227Z,1.30
2023-02-24T13:34:31.710Z,1.30
2023-02-24T13:37:01.459Z,1.20
2023-02-24T13:39:35.186Z,1.20
2023-02-24T13:42:05.363Z,1.20
2023-02-24T13:44:33.774Z,1.20
2023-02-24T13:47:40.679Z,1.20
2023-02-24T13:50:25.557Z,1.10
2023-02-24T13:53:34.917Z,1.20
2023-02-24T13:56:35.314Z,1.20
2023-02-24T13:59:21.908Z,1.20
2023-02-24T14:01:52.380Z,1.10
2023-02-24T14:04:27.220Z,1.10
2023-02-24T14:06:59.447Z,1.10
2023-02-24T14:09:34.804Z,1.10
2023-02-24T14:12:07.318Z,1.00
2023-02-24T14:14:36.359Z,1.10
2023-02-24T14:17:04.546Z,1.00
2023-02-24T14:19:32.890Z,1.00
2023-02-24T14:22:04.198Z,1.00
2023-02-24T14:24:33.756Z,1.00
2023-02-24T14:27:03.520Z,0.90
2023-02-24T14:29:43.612Z,0.90
2023-02-24T14:32:21.149Z,0.90
2023-02-24T14:34:49.757Z,0.90
2023-02-24T14:37:20.542Z,0.90
2023-02-24T14:39:54.770Z,0.80
2023-02-24T14:42:23.781Z,0.90
2023-02-24T14:44:54.312Z,0.80
2023-02-24T14:47:25.169Z,0.80
2023-02-24T14:49:59.691Z,0.90
2023-02-24T14:52:36.707Z,0.90
2023-02-24T14:55:13.248Z,0.80
2023-02-24T14:57:46.228Z,0.80
2023-02-24T15:00:23.904Z,0.80
2023-02-24T15:02:57.881Z,0.90
2023-02-24T15:05:26.525Z,0.90
2023-02-24T15:07:54.964Z,0.80
2023-02-24T15:10:27.809Z,0.90
2023-02-24T15:13:00.828Z,0.80
2023-02-24T15:15:34.180Z,0.80
2023-02-24T15:18:05.085Z,0.90
2023-02-24T15:20:35.846Z,0.90
2023-02-24T15:23:05.504Z,0.90
2023-02-24T15:25:44.887Z,0.90
2023-02-24T15:28:25.596Z,0.90
2023-02-24T15:31:10.570Z,1.00
2023-02-24T15:33:41.600Z,1.00
2023-02-24T15:36:18.994Z,1.00
2023-02-24T15:38:48.275Z,1.00
2023-02-24T15:41:18.051Z,1.10
2023-02-24T15:43:48.616Z,1.00
2023-02-24T15:46:23.448Z,1.10
2023-02-24T15:48:53.848Z,1.10
2023-02-24T15:51:32.376Z,1.10
2023-02-24T15:54:02.402Z,1.20
2023-02-24T15:56:34.957Z,1.20
2023-02-24T15:59:03.333Z,1.20
2023-02-24T16:01:32.638Z,1.30
2023-02-24T16:04:00.986Z,1.30
2023-02-24T16:06:30.102Z,1.30
2023-02-24T16:09:00.033Z,1.40
2023-02-24T16:11:34.489Z,1.40
2023-02-24T16:14:03.232Z,1.30
2023-02-24T16:16:33.374Z,1.50
2023-02-24T16:19:01.949Z,1.50
2023-02-24T16:21:30.291Z,1.60
2023-02-24T16:23:58.586Z,1.60
2023-02-24T16:26:26.876Z,1.70
2023-02-24T16:28:59.190Z,1.80
2023-02-24T16:31:28.027Z,1.80
2023-02-24T16:33:59.989Z,1.70
2023-02-24T16:36:30.049Z,1.70
2023-02-24T16:38:59.046Z,1.80
2023-02-24T16:41:27.394Z,1.80
2023-02-24T16:43:56.930Z,1.80
2023-02-24T16:46:25.689Z,1.90
2023-02-24T16:48:54.725Z,1.90
2023-02-24T16:51:23.587Z,1.90
2023-02-24T16:53:51.907Z,1.90
2023-02-24T16:56:20.342Z,1.90
2023-02-24T16:58:48.831Z,1.90
2023-02-24T17:01:22.346Z,1.90
2023-02-24T17:03:53.853Z,2.00
2023-02-24T17:06:23.723Z,2.00
2023-02-24T17:08:52.438Z,2.10
2023-02-24T17:11:22.914Z,2.10
2023-02-24T17:13:51.224Z,2.20
2023-02-24T17:16:22.095Z,2.20
2023-02-24T17:18:50.634Z,2.20
2023-02-24T17:21:19.793Z,2.20
2023-02-24T17:23:48.742Z,2.20
2023-02-24T17:26:17.392Z,2.20
2023-02-24T17:28:45.886Z,2.20
2023-02-24T17:31:17.009Z,2.30
2023-02-24T17:33:46.690Z,2.30
2023-02-24T17:36:15.149Z,2.30
2023-02-24T17:38:44.001Z,2.30
2023-02-24T17:41:12.315Z,2.40
2023-02-24T17:43:40.698Z,2.40
2023-02-24T17:46:09.117Z,2.40
2023-02-24T17:48:37.544Z,2.40
2023-02-24T17:51:07.381Z,2.40
2023-02-24T17:53:35.626Z,2.40
2023-02-24T17:56:05.148Z,2.50
2023-02-24T17:58:34.324Z,2.50
2023-02-24T18:01:03.216Z,2.50
2023-02-24T18:03:32.216Z,2.40
2023-02-24T18:06:02.054Z,2.40
2023-02-24T18:08:33.093Z,2.40
2023-02-24T18:11:01.423Z,2.40
2023-02-24T18:13:31.081Z,2.50
2023-02-24T18:15:59.949Z,2.30
2023-02-24T18:18:30.301Z,2.20
2023-02-24T18:21:02.793Z,2.20
2023-02-24T18:23:33.563Z,2.20
2023-02-24T18:26:03.894Z,2.20
2023-02-24T18:28:32.869Z,2.20
2023-02-24T18:31:03.279Z,2.20
2023-02-24T18:33:31.888Z,2.30
2023-02-24T18:36:00.996Z,2.30
2023-02-24T18:38:29.745Z,2.30
2023-02-24T18:41:00.807Z,2.40
2023-02-24T18:43:29.167Z,2.40
2023-02-24T18:45:59.149Z,2.40
2023-02-24T18:48:27.917Z,2.50
2023-02-24T18:50:58.178Z,2.60
2023-02-24T18:53:28.930Z,2.50
2023-02-24T18:56:02.135Z,2.60
2023-02-24T18:58:31.214Z,2.70
2023-02-24T19:01:00.215Z,2.70
2023-02-24T19:03:28.715Z,2.70
2023-02-24T19:05:57.360Z,2.60
2023-02-24T19:08:25.624Z,2.60
2023-02-24T19:10:53.893Z,2.60
2023-02-24T19:13:24.431Z,2.70
2023-02-24T19:15:52.761Z,2.70
2023-02-24T19:18:21.018Z,2.70
2023-02-24T19:20:49.496Z,2.70
2023-02-24T19:23:17.714Z,2.70
2023-02-24T19:25:46.061Z,2.70
2023-02-24T19:28:17.174Z,2.70
2023-02-24T19:30:47.593Z,2.70
2023-02-24T19:33:15.843Z,2.70
2023-02-24T19:35:45.329Z,2.70
2023-02-24T19:38:16.027Z,2.70
2023-02-24T19:40:45.187Z,2.70
2023-02-24T19:43:13.924Z,2.70
2023-02-24T19:45:42.932Z,2.80
2023-02-24T19:48:13.047Z,2.80
2023-02-24T19:50:41.563Z,2.80
2023-02-24T19:53:10.167Z,2.70
2023-02-24T19:55:39.111Z,2.70
2023-02-24T19:58:07.637Z,2.70
2023-02-24T20:00:36.156Z,2.70
2023-02-24T20:03:04.352Z,2.60
2023-02-24T20:05:36.694Z,2.60
2023-02-24T20:08:04.986Z,2.60
2023-02-24T20:10:33.701Z,2.60
2023-02-24T20:13:07.100Z,2.60
2023-02-24T20:15:36.646Z,2.60
2023-02-24T20:18:08.731Z,2.60
2023-02-24T20:20:39.136Z,2.60
2023-02-24T20:23:07.925Z,2.60
2023-02-24T20:25:36.269Z,2.60
2023-02-24T20:28:04.777Z,2.60
2023-02-24T20:30:33.152Z,2.70
2023-02-24T20:33:01.453Z,2.60
2023-02-24T20:35:29.741Z,2.60
2023-02-24T20:37:59.339Z,2.70
2023-02-24T20:40:27.559Z,2.70
2023-02-24T20:42:56.198Z,2.70
2023-02-24T20:45:24.395Z,2.60
2023-02-24T20:47:52.641Z,2.70
2023-02-24T20:50:20.961Z,2.60
2023-02-24T20:52:49.248Z,2.60
2023-02-24T20:55:19.454Z,2.60
2023-02-24T20:57:47.786Z,2.50
2023-02-24T21:00:17.229Z,2.50
2023-02-24T21:02:45.429Z,2.50
2023-02-24T21:05:25.526Z,2.50
2023-02-24T21:07:54.254Z,2.50
2023-02-24T21:10:25.914Z,2.40
2023-02-24T21:12:54.383Z,2.30
2023-02-24T21:15:22.785Z,2.20
2023-02-24T21:17:51.159Z,2.10
2023-02-24T21:20:19.868Z,2.10
2023-02-24T21:22:48.115Z,2.10
2023-02-24T21:25:16.465Z,2.10
2023-02-24T21:27:48.401Z,2.20
2023-02-24T21:30:17.129Z,2.20
2023-02-24T21:32:45.439Z,2.10
2023-02-24T21:35:13.745Z,2.20
2023-02-24T21:37:42.172Z,2.20
2023-02-24T21:40:12.208Z,2.20
2023-02-24T21:42:44.177Z,2.20
2023-02-24T21:45:20.370Z,2.20
2023-02-24T21:47:52.710Z,2.30
2023-02-24T21:50:23.818Z,2.30
2023-02-24T21:52:54.715Z,2.30
2023-02-24T21:55:23.437Z,2.30
2023-02-24T21:57:51.775Z,2.30
2023-02-24T22:00:24.170Z,2.30
2023-02-24T22:02:55.114Z,2.30
2023-02-24T22:05:24.634Z,2.40
2023-02-24T22:07:53.486Z,2.30
2023-02-24T22:10:23.698Z,2.40
2023-02-24T22:12:56.593Z,2.40
2023-02-24T22:15:26.202Z,2.50
2023-02-24T22:17:54.896Z,2.40
2023-02-24T22:20:23.292Z,2.50
2023-02-24T22:22:51.499Z,2.50
2023-02-24T22:25:22.662Z,2.50
2023-02-24T22:27:51.033Z,2.60
2023-02-24T22:30:20.533Z,2.60
2023-02-24T22:32:51.041Z,2.60
2023-02-24T22:35:19.679Z,2.60
2023-02-24T22:37:47.914Z,2.60
2023-02-24T22:40:16.348Z,2.50
2023-02-24T22:42:45.084Z,2.50
2023-02-24T22:45:13.422Z,2.60
2023-02-24T22:47:41.896Z,2.60
2023-02-24T22:50:12.795Z,2.50
2023-02-24T22:52:41.234Z,2.60
2023-02-24T22:55:10.356Z,2.60
2023-02-24T22:57:39.223Z,2.60
2023-02-24T23:00:10.764Z,2.60
2023-02-24T23:02:39.040Z,2.60
2023-02-24T23:05:08.813Z,2.50
2023-02-24T23:07:38.567Z,2.50
2023-02-24T23:10:07.517Z,2.50
2023-02-24T23:12:35.880Z,2.50
2023-02-24T23:15:04.267Z,2.40
2023-02-24T23:17:32.542Z,2.50
2023-02-24T23:20:00.765Z,2.40
2023-02-24T23:22:29.020Z,2.60
2023-02-24T23:24:58.948Z,2.60
2023-02-24T23:27:27.206Z,2.60
2023-02-24T23:29:55.495Z,2.60
2023-02-24T23:32:23.827Z,2.70
2023-02-24T23:34:54.088Z,2.70
2023-02-24T23:37:22.394Z,2.70
2023-02-24T23:39:50.594Z,2.60
2023-02-24T23:42:20.460Z,2.70
2023-02-24T23:44:49.564Z,2.70
2023-02-24T23:47:17.843Z,2.70
2023-02-24T23:49:48.363Z,2.70
2023-02-24T23:52:17.057Z,2.80
2023-02-24T23:54:48.793Z,2.70
2023-02-24T23:57:17.001Z,2.70
2023-02-24T23:59:46.686Z,2.70
